createdAt,value
2018-09-29T00:02:13.776Z,11.67
2018-09-29T00:04:42.932Z,11.79
2018-09-29T00:07:12.290Z,11.71
2018-09-29T00:09:41.228Z,11.55
2018-09-29T00:12:10.109Z,11.64
2018-09-29T00:14:38.999Z,11.56
2018-09-29T00:17:07.885Z,11.54
2018-09-29T00:19:36.764Z,11.49
2018-09-29T00:22:05.661Z,11.45
2018-09-29T00:24:34.537Z,11.41
2018-09-29T00:27:03.440Z,11.31
2018-09-29T00:29:32.316Z,11.27
2018-09-29T00:32:01.213Z,11.31
2018-09-29T00:34:30.132Z,11.33
2018-09-29T00:36:59.026Z,11.35
2018-09-29T00:39:27.899Z,11.37
2018-09-29T00:41:56.796Z,11.40
2018-09-29T00:44:25.781Z,11.35
2018-09-29T00:46:56.110Z,11.21
2018-09-29T00:49:24.995Z,11.21
2018-09-29T00:51:53.939Z,11.19
2018-09-29T00:54:22.828Z,11.18
2018-09-29T00:56:51.695Z,11.22
2018-09-29T00:59:20.685Z,11.16
2018-09-29T01:01:49.579Z,11.14
2018-09-29T01:04:18.447Z,11.19
2018-09-29T01:06:47.443Z,11.24
2018-09-29T01:09:16.332Z,11.22
2018-09-29T01:11:45.312Z,11.11
2018-09-29T01:14:14.191Z,11.04
2018-09-29T01:16:43.074Z,11.00
2018-09-29T01:19:11.994Z,11.02
2018-09-29T01:21:40.879Z,11.15
2018-09-29T01:24:09.776Z,11.15
2018-09-29T01:26:38.703Z,11.06
2018-09-29T01:29:07.591Z,10.99
2018-09-29T01:31:36.464Z,10.85
2018-09-29T01:34:05.347Z,10.90
2018-09-29T01:36:34.355Z,10.72
2018-09-29T01:39:03.583Z,10.57
2018-09-29T01:41:32.491Z,10.56
2018-09-29T01:44:01.368Z,10.60
2018-09-29T01:46:30.334Z,10.53
2018-09-29T01:48:59.286Z,10.48
2018-09-29T01:51:28.293Z,10.53
2018-09-29T01:53:57.246Z,10.46
2018-09-29T01:56:26.166Z,10.47
2018-09-29T01:58:55.219Z,10.29
2018-09-29T02:01:24.181Z,10.21
2018-09-29T02:03:53.175Z,10.19
2018-09-29T02:06:22.114Z,10.15
2018-09-29T02:08:51.075Z,10.08
2018-09-29T02:11:20.033Z,9.94
2018-09-29T02:13:49.002Z,9.92
2018-09-29T02:16:17.991Z,9.89
2018-09-29T02:18:46.966Z,9.84
2018-09-29T02:21:15.910Z,9.80
2018-09-29T02:23:44.870Z,9.63
2018-09-29T02:26:14.254Z,9.73
2018-09-29T02:28:43.235Z,9.69
2018-09-29T02:31:12.175Z,9.65
2018-09-29T02:33:41.095Z,9.67
2018-09-29T02:36:10.062Z,9.63
2018-09-29T02:38:39.530Z,9.57
2018-09-29T02:41:08.453Z,9.48
2018-09-29T02:43:37.411Z,9.41
2018-09-29T02:46:06.394Z,9.38
2018-09-29T02:48:35.318Z,9.40
2018-09-29T02:51:04.311Z,9.51
2018-09-29T02:53:33.273Z,9.50
2018-09-29T02:56:03.620Z,9.31
2018-09-29T02:58:32.749Z,9.37
2018-09-29T03:01:01.698Z,9.11
2018-09-29T03:03:30.672Z,9.20
2018-09-29T03:05:59.610Z,9.12
2018-09-29T03:08:28.624Z,9.19
2018-09-29T03:11:04.178Z,9.04
2018-09-29T03:13:33.140Z,8.94
2018-09-29T03:16:02.117Z,8.98
2018-09-29T03:18:31.070Z,8.96
2018-09-29T03:21:00.002Z,8.76
2018-09-29T03:23:28.995Z,8.89
2018-09-29T03:25:58.044Z,8.79
2018-09-29T03:28:26.989Z,8.76
2018-09-29T03:30:55.948Z,8.80
2018-09-29T03:33:24.976Z,8.78
2018-09-29T03:35:53.959Z,8.90
2018-09-29T03:38:22.970Z,8.71
2018-09-29T03:40:51.914Z,8.70
2018-09-29T03:43:20.856Z,8.61
2018-09-29T03:45:49.785Z,8.63
2018-09-29T03:48:18.745Z,8.61
2018-09-29T03:50:47.740Z,8.61
2018-09-29T03:53:16.678Z,8.62
2018-09-29T03:55:45.623Z,8.61
2018-09-29T03:58:14.545Z,8.49
2018-09-29T04:00:43.471Z,8.35
2018-09-29T04:03:12.457Z,8.35
2018-09-29T04:05:41.433Z,8.38
2018-09-29T04:08:10.388Z,8.41
2018-09-29T04:10:39.338Z,8.36
2018-09-29T04:13:08.285Z,8.41
2018-09-29T04:15:37.319Z,8.33
2018-09-29T04:18:06.372Z,8.17
2018-09-29T04:20:35.319Z,8.14
2018-09-29T04:23:04.286Z,8.17
2018-09-29T04:25:33.282Z,8.04
2018-09-29T04:28:02.222Z,8.02
2018-09-29T04:30:31.171Z,8.02
2018-09-29T04:33:00.111Z,8.07
2018-09-29T04:35:29.187Z,8.03
2018-09-29T04:37:58.143Z,7.86
2018-09-29T04:40:29.119Z,8.01
2018-09-29T04:42:58.147Z,7.89
2018-09-29T04:45:27.121Z,7.82
2018-09-29T04:47:56.110Z,7.78
2018-09-29T04:50:25.068Z,7.77
2018-09-29T04:52:54.030Z,7.79
2018-09-29T04:55:23.004Z,7.72
2018-09-29T04:57:51.950Z,7.71
2018-09-29T05:00:20.912Z,7.76
2018-09-29T05:02:49.906Z,7.71
2018-09-29T05:05:18.858Z,7.69
2018-09-29T05:07:47.802Z,7.66
2018-09-29T05:10:16.778Z,7.53
2018-09-29T05:12:45.734Z,7.54
2018-09-29T05:15:14.710Z,7.50
2018-09-29T05:17:43.729Z,7.44
2018-09-29T05:20:12.690Z,7.38
2018-09-29T05:22:41.658Z,7.42
2018-09-29T05:25:10.618Z,7.35
2018-09-29T05:27:39.574Z,7.37
2018-09-29T05:30:09.985Z,7.36
2018-09-29T05:32:38.968Z,7.42
2018-09-29T05:35:07.921Z,7.32
2018-09-29T05:37:36.914Z,7.30
2018-09-29T05:40:05.894Z,7.39
2018-09-29T05:42:34.852Z,7.29
2018-09-29T05:45:03.805Z,7.33
2018-09-29T05:47:32.781Z,7.41
2018-09-29T05:50:01.721Z,7.37
2018-09-29T05:52:30.661Z,7.44
2018-09-29T05:54:59.622Z,7.45
2018-09-29T05:57:28.633Z,7.54
2018-09-29T05:59:57.623Z,7.47
2018-09-29T06:02:26.570Z,7.45
2018-09-29T06:04:55.509Z,7.67
2018-09-29T06:07:24.494Z,7.70
2018-09-29T06:09:53.434Z,7.66
2018-09-29T06:12:22.402Z,7.75
2018-09-29T06:14:51.379Z,7.89
2018-09-29T06:17:20.334Z,7.91
2018-09-29T06:19:49.282Z,7.95
2018-09-29T06:22:18.261Z,8.14
2018-09-29T06:24:47.195Z,8.15
2018-09-29T06:27:16.163Z,8.40
2018-09-29T06:29:45.177Z,8.39
2018-09-29T06:32:14.130Z,8.42
2018-09-29T06:34:43.090Z,8.44
2018-09-29T06:37:12.070Z,8.46
2018-09-29T06:39:41.286Z,8.47
2018-09-29T06:42:10.278Z,8.42
2018-09-29T06:44:39.221Z,8.53
2018-09-29T06:47:08.187Z,8.57
2018-09-29T06:49:37.132Z,8.68
2018-09-29T06:52:06.104Z,8.71
2018-09-29T06:54:35.050Z,9.01
2018-09-29T06:57:03.997Z,9.24
2018-09-29T06:59:32.967Z,9.62
2018-09-29T07:02:01.941Z,9.76
2018-09-29T07:04:30.876Z,9.81
2018-09-29T07:06:59.851Z,9.90
2018-09-29T07:09:28.807Z,10.00
2018-09-29T07:11:57.771Z,10.26
2018-09-29T07:14:26.745Z,10.54
2018-09-29T07:16:55.703Z,10.94
2018-09-29T07:19:24.675Z,11.33
2018-09-29T07:21:53.699Z,11.93
2018-09-29T07:24:22.627Z,12.41
2018-09-29T07:26:54.915Z,12.65
2018-09-29T07:29:23.949Z,12.86
2018-09-29T07:31:53.340Z,12.86
2018-09-29T07:34:22.414Z,13.09
2018-09-29T07:36:51.767Z,13.13
2018-09-29T07:39:21.254Z,13.38
2018-09-29T07:41:50.512Z,13.23
2018-09-29T07:44:19.761Z,13.24
2018-09-29T07:46:49.029Z,13.20
2018-09-29T07:49:20.657Z,13.35
2018-09-29T07:51:50.085Z,13.27
2018-09-29T07:54:21.809Z,13.43
2018-09-29T07:56:51.211Z,13.56
2018-09-29T07:59:20.366Z,13.88
2018-09-29T08:01:57.893Z,13.76
2018-09-29T08:04:27.099Z,13.39
2018-09-29T08:06:56.286Z,13.38
2018-09-29T08:09:27.584Z,13.56
2018-09-29T08:11:56.905Z,13.65
2018-09-29T08:14:26.163Z,13.65
2018-09-29T08:16:55.609Z,13.79
2018-09-29T08:19:41.353Z,13.57
2018-09-29T08:22:11.104Z,13.42
2018-09-29T08:24:43.338Z,13.53
2018-09-29T08:27:13.601Z,13.59
2018-09-29T08:29:44.430Z,13.60
2018-09-29T08:32:13.758Z,13.57
2018-09-29T08:34:46.253Z,13.58
2018-09-29T08:37:15.615Z,13.55
2018-09-29T08:39:46.818Z,13.52
2018-09-29T08:42:18.852Z,13.71
2018-09-29T08:44:48.358Z,13.49
2018-09-29T08:47:20.258Z,13.34
2018-09-29T08:49:50.769Z,13.45
2018-09-29T08:52:21.934Z,13.53
2018-09-29T08:54:52.752Z,13.58
2018-09-29T08:57:23.557Z,13.57
2018-09-29T08:59:54.407Z,13.72
2018-09-29T09:02:23.612Z,13.87
2018-09-29T09:04:53.017Z,13.80
2018-09-29T09:07:22.392Z,13.75
2018-09-29T09:09:51.627Z,13.85
2018-09-29T09:12:20.963Z,13.89
2018-09-29T09:14:49.907Z,13.95
2018-09-29T09:17:18.866Z,14.11
2018-09-29T09:19:47.830Z,14.13
2018-09-29T09:22:16.821Z,14.21
2018-09-29T09:24:45.928Z,14.26
2018-09-29T09:27:15.206Z,14.37
2018-09-29T09:29:44.646Z,14.57
2018-09-29T09:32:13.802Z,14.76
2018-09-29T09:34:42.973Z,14.89
2018-09-29T09:37:12.326Z,15.12
2018-09-29T09:39:41.586Z,15.46
2018-09-29T09:42:10.891Z,15.46
2018-09-29T09:44:40.198Z,15.59
2018-09-29T09:47:09.534Z,15.43
2018-09-29T09:49:39.005Z,15.33
2018-09-29T09:52:08.398Z,15.32
2018-09-29T09:54:37.682Z,15.27
2018-09-29T09:57:07.688Z,15.16
2018-09-29T09:59:37.008Z,15.44
2018-09-29T10:02:11.282Z,15.65
2018-09-29T10:04:40.256Z,15.83
2018-09-29T10:07:09.230Z,16.11
2018-09-29T10:09:38.374Z,16.22
2018-09-29T10:12:20.992Z,16.20
2018-09-29T10:14:50.206Z,16.24
2018-09-29T10:17:19.194Z,16.19
2018-09-29T10:19:48.267Z,16.18
2018-09-29T10:22:23.323Z,16.13
2018-09-29T10:24:52.562Z,16.41
2018-09-29T10:27:22.182Z,16.43
2018-09-29T10:29:51.170Z,16.52
2018-09-29T10:32:20.375Z,16.48
2018-09-29T10:34:50.460Z,16.69
2018-09-29T10:37:19.598Z,16.71
2018-09-29T10:39:48.683Z,16.67
2018-09-29T10:42:18.069Z,16.70
2018-09-29T10:44:47.628Z,16.71
2018-09-29T10:47:16.954Z,16.86
2018-09-29T10:49:46.210Z,17.19
2018-09-29T10:52:15.166Z,17.47
2018-09-29T10:54:44.389Z,17.62
2018-09-29T10:57:14.331Z,17.42
2018-09-29T10:59:43.654Z,17.03
2018-09-29T11:02:12.989Z,17.21
2018-09-29T11:04:42.101Z,17.26
2018-09-29T11:07:11.059Z,17.50
2018-09-29T11:09:40.107Z,17.62
2018-09-29T11:12:09.057Z,17.71
2018-09-29T11:14:38.001Z,18.17
2018-09-29T11:17:07.065Z,18.28
2018-09-29T11:19:36.138Z,18.15
2018-09-29T11:22:05.111Z,18.28
2018-09-29T11:24:34.213Z,17.94
2018-09-29T11:27:03.634Z,18.01
2018-09-29T11:29:32.599Z,18.16
2018-09-29T11:32:01.590Z,17.91
2018-09-29T11:34:30.941Z,17.74
2018-09-29T11:37:00.877Z,17.66
2018-09-29T11:39:29.892Z,17.66
2018-09-29T11:41:59.072Z,17.74
2018-09-29T11:44:28.614Z,18.02
2018-09-29T11:46:57.606Z,17.97
2018-09-29T11:49:26.543Z,18.12
2018-09-29T11:51:55.535Z,18.05
2018-09-29T11:54:24.549Z,18.05
2018-09-29T11:56:53.577Z,18.34
2018-09-29T11:59:22.562Z,18.61
2018-09-29T12:01:51.583Z,18.92
2018-09-29T12:04:20.501Z,18.99
2018-09-29T12:06:50.086Z,18.82
2018-09-29T12:09:19.466Z,18.89
2018-09-29T12:11:48.932Z,19.15
2018-09-29T12:14:18.422Z,18.74
2018-09-29T12:16:47.390Z,18.98
2018-09-29T12:19:16.402Z,19.25
2018-09-29T12:21:45.380Z,19.04
2018-09-29T12:24:14.371Z,18.66
2018-09-29T12:26:43.617Z,18.95
2018-09-29T12:29:12.994Z,19.26
2018-09-29T12:31:42.324Z,19.27
2018-09-29T12:34:11.722Z,19.48
2018-09-29T12:36:41.068Z,19.22
2018-09-29T12:39:11.230Z,18.83
2018-09-29T12:41:40.670Z,18.95
2018-09-29T12:44:09.930Z,18.66
2018-09-29T12:46:39.493Z,18.79
2018-09-29T12:49:08.751Z,19.02
2018-09-29T12:51:38.125Z,19.18
2018-09-29T12:54:07.346Z,18.89
2018-09-29T12:56:36.563Z,18.98
2018-09-29T12:59:05.542Z,19.14
2018-09-29T13:01:34.565Z,19.07
2018-09-29T13:04:03.549Z,19.30
2018-09-29T13:06:32.712Z,19.10
2018-09-29T13:09:01.782Z,19.46
2018-09-29T13:11:30.861Z,19.47
2018-09-29T13:14:00.244Z,19.52
2018-09-29T13:16:29.285Z,19.34
2018-09-29T13:18:58.654Z,19.60
2018-09-29T13:21:28.094Z,19.45
2018-09-29T13:23:57.075Z,19.54
2018-09-29T13:26:26.724Z,19.40
2018-09-29T13:28:56.295Z,19.79
2018-09-29T13:31:26.356Z,19.66
2018-09-29T13:33:56.044Z,19.48
2018-09-29T13:36:26.784Z,19.38
2018-09-29T13:38:57.420Z,19.67
2018-09-29T13:41:27.884Z,19.79
2018-09-29T13:43:59.094Z,19.56
2018-09-29T13:46:29.735Z,19.88
2018-09-29T13:49:00.643Z,19.56
2018-09-29T13:51:29.833Z,19.53
2018-09-29T13:53:58.818Z,19.46
2018-09-29T13:56:27.771Z,19.38
2018-09-29T13:58:56.720Z,19.72
2018-09-29T14:01:27.728Z,19.77
2018-09-29T14:03:56.947Z,19.69
2018-09-29T14:06:25.903Z,19.58
2018-09-29T14:08:54.897Z,19.38
2018-09-29T14:11:24.623Z,19.52
2018-09-29T14:13:53.654Z,19.60
2018-09-29T14:16:22.632Z,19.59
2018-09-29T14:18:51.623Z,19.24
2018-09-29T14:21:20.590Z,19.02
2018-09-29T14:23:49.530Z,19.01
2018-09-29T14:26:18.505Z,19.10
2018-09-29T14:28:47.506Z,18.82
2018-09-29T14:31:16.452Z,19.03
2018-09-29T14:33:45.385Z,18.95
2018-09-29T14:36:14.754Z,19.03
2018-09-29T14:38:44.048Z,19.24
2018-09-29T14:41:13.002Z,19.24
2018-09-29T14:43:42.927Z,19.13
2018-09-29T14:46:11.878Z,19.24
2018-09-29T14:48:40.834Z,19.44
2018-09-29T14:51:09.858Z,19.09
2018-09-29T14:53:38.797Z,19.13
2018-09-29T14:56:07.977Z,19.26
2018-09-29T14:58:37.297Z,19.30
2018-09-29T15:01:06.270Z,19.03
2018-09-29T15:03:35.326Z,19.12
2018-09-29T15:06:04.473Z,18.68
2018-09-29T15:08:33.790Z,18.57
2018-09-29T15:11:02.767Z,18.70
2018-09-29T15:13:31.730Z,18.62
2018-09-29T15:16:01.025Z,18.70
2018-09-29T15:18:30.488Z,18.67
2018-09-29T15:20:59.865Z,18.59
2018-09-29T15:23:29.171Z,18.52
2018-09-29T15:25:58.488Z,18.51
2018-09-29T15:28:27.681Z,18.63
2018-09-29T15:30:56.969Z,18.57
2018-09-29T15:33:26.333Z,18.44
2018-09-29T15:35:55.321Z,18.35
2018-09-29T15:38:24.409Z,18.25
2018-09-29T15:40:53.368Z,18.09
2018-09-29T15:43:22.573Z,17.93
2018-09-29T15:45:51.655Z,17.96
2018-09-29T15:48:20.651Z,17.87
2018-09-29T15:50:51.809Z,17.98
2018-09-29T15:53:20.883Z,18.02
2018-09-29T15:55:49.886Z,17.63
2018-09-29T15:58:19.066Z,17.57
2018-09-29T16:00:48.136Z,17.71
2018-09-29T16:03:17.410Z,17.65
2018-09-29T16:05:46.812Z,17.43
2018-09-29T16:08:15.894Z,17.38
2018-09-29T16:10:44.918Z,17.21
2018-09-29T16:13:14.029Z,17.18
2018-09-29T16:15:43.058Z,16.87
2018-09-29T16:18:12.065Z,16.65
2018-09-29T16:20:41.009Z,16.69
2018-09-29T16:23:09.967Z,16.55
2018-09-29T16:25:38.927Z,16.57
2018-09-29T16:28:07.891Z,16.23
2018-09-29T16:30:36.866Z,16.01
2018-09-29T16:33:08.662Z,16.15
2018-09-29T16:35:38.059Z,15.93
2018-09-29T16:38:07.102Z,15.70
2018-09-29T16:40:36.046Z,15.69
2018-09-29T16:43:05.061Z,15.50
2018-09-29T16:45:34.045Z,15.36
2018-09-29T16:48:03.023Z,15.08
2018-09-29T16:50:32.621Z,15.14
2018-09-29T16:53:02.010Z,14.91
2018-09-29T16:55:31.395Z,14.84
2018-09-29T16:58:00.746Z,14.85
2018-09-29T17:00:30.055Z,14.63
2018-09-29T17:02:59.210Z,14.57
2018-09-29T17:05:28.438Z,14.30
2018-09-29T17:07:57.697Z,14.12
2018-09-29T17:10:26.997Z,14.14
2018-09-29T17:12:56.297Z,13.94
2018-09-29T17:15:25.578Z,13.69
2018-09-29T17:17:54.820Z,13.85
2018-09-29T17:20:30.570Z,13.83
2018-09-29T17:22:59.886Z,13.71
2018-09-29T17:25:29.186Z,13.64
2018-09-29T17:27:58.543Z,13.49
2018-09-29T17:30:27.837Z,13.44
2018-09-29T17:32:57.183Z,13.19
2018-09-29T17:35:26.573Z,13.12
2018-09-29T17:37:55.783Z,13.11
2018-09-29T17:40:25.101Z,13.14
2018-09-29T17:42:54.452Z,12.98
2018-09-29T17:45:23.809Z,12.86
2018-09-29T17:47:53.065Z,12.85
2018-09-29T17:50:22.283Z,12.83
2018-09-29T17:52:51.548Z,12.73
2018-09-29T17:55:20.741Z,12.66
2018-09-29T17:57:50.047Z,12.60
2018-09-29T18:00:19.262Z,12.60
2018-09-29T18:02:48.468Z,12.44
2018-09-29T18:05:17.621Z,12.39
2018-09-29T18:07:46.862Z,12.18
2018-09-29T18:10:16.210Z,12.13
2018-09-29T18:12:45.534Z,12.02
2018-09-29T18:15:14.753Z,11.88
2018-09-29T18:17:44.027Z,11.90
2018-09-29T18:20:13.257Z,11.90
2018-09-29T18:22:42.437Z,11.91
2018-09-29T18:25:11.590Z,11.88
2018-09-29T18:27:40.949Z,11.96
2018-09-29T18:30:10.368Z,11.80
2018-09-29T18:32:39.649Z,11.82
2018-09-29T18:35:08.977Z,11.77
2018-09-29T18:37:38.331Z,11.67
2018-09-29T18:40:07.633Z,11.64
2018-09-29T18:42:36.954Z,11.52
2018-09-29T18:45:06.470Z,11.34
2018-09-29T18:47:35.762Z,11.24
2018-09-29T18:50:05.040Z,11.01
2018-09-29T18:52:34.318Z,11.09
2018-09-29T18:55:03.647Z,10.97
2018-09-29T18:57:33.044Z,10.81
2018-09-29T19:00:02.344Z,10.63
2018-09-29T19:02:31.536Z,10.60
2018-09-29T19:05:00.829Z,10.61
2018-09-29T19:07:30.474Z,10.51
2018-09-29T19:09:59.765Z,10.35
2018-09-29T19:12:28.969Z,10.28
2018-09-29T19:14:58.281Z,10.23
2018-09-29T19:17:27.670Z,10.29
2018-09-29T19:19:56.931Z,10.35
2018-09-29T19:22:26.257Z,10.44
2018-09-29T19:24:55.542Z,10.38
2018-09-29T19:27:24.745Z,10.28
2018-09-29T19:29:53.968Z,10.30
2018-09-29T19:32:23.134Z,10.20
2018-09-29T19:34:52.438Z,10.33
2018-09-29T19:37:21.647Z,10.46
2018-09-29T19:39:50.939Z,10.41
2018-09-29T19:42:20.122Z,10.52
2018-09-29T19:44:49.415Z,10.44
2018-09-29T19:47:18.765Z,10.39
2018-09-29T19:49:48.069Z,10.40
2018-09-29T19:52:17.388Z,10.43
2018-09-29T19:54:46.829Z,10.45
2018-09-29T19:57:16.057Z,10.56
2018-09-29T19:59:45.507Z,10.41
2018-09-29T20:02:15.003Z,10.35
2018-09-29T20:04:44.242Z,10.36
2018-09-29T20:07:13.574Z,10.25
2018-09-29T20:09:42.867Z,10.27
2018-09-29T20:12:12.393Z,10.38
2018-09-29T20:14:41.879Z,10.40
2018-09-29T20:17:11.267Z,10.33
2018-09-29T20:19:40.862Z,10.14
2018-09-29T20:22:10.948Z,10.19
2018-09-29T20:24:40.226Z,10.26
2018-09-29T20:27:09.842Z,10.05
2018-09-29T20:29:39.347Z,10.08
2018-09-29T20:32:08.717Z,10.12
2018-09-29T20:34:38.041Z,10.07
2018-09-29T20:37:07.466Z,10.07
2018-09-29T20:39:36.826Z,10.00
2018-09-29T20:42:06.140Z,10.04
2018-09-29T20:44:35.554Z,10.04
2018-09-29T20:47:04.796Z,9.80
2018-09-29T20:49:34.120Z,9.89
2018-09-29T20:52:03.372Z,9.89
2018-09-29T20:54:32.739Z,9.79
2018-09-29T20:57:02.048Z,9.71
2018-09-29T20:59:31.549Z,9.71
2018-09-29T21:02:00.831Z,9.68
2018-09-29T21:04:30.494Z,9.76
2018-09-29T21:06:59.864Z,9.71
2018-09-29T21:09:29.249Z,9.92
2018-09-29T21:11:58.667Z,9.73
2018-09-29T21:14:28.062Z,9.58
2018-09-29T21:16:57.470Z,9.60
2018-09-29T21:19:26.761Z,9.58
2018-09-29T21:21:56.265Z,9.39
2018-09-29T21:24:25.726Z,9.40
2018-09-29T21:26:55.080Z,9.31
2018-09-29T21:29:54.840Z,9.46
2018-09-29T21:32:24.838Z,9.42
2018-09-29T21:34:54.184Z,9.12
2018-09-29T21:37:23.493Z,8.94
2018-09-29T21:39:52.779Z,9.13
2018-09-29T21:42:22.101Z,9.11
2018-09-29T21:44:51.469Z,9.11
2018-09-29T21:47:21.009Z,9.04
2018-09-29T21:49:50.361Z,9.10
2018-09-29T21:52:19.731Z,9.04
2018-09-29T21:54:48.995Z,9.07
2018-09-29T21:57:18.397Z,8.87
2018-09-29T21:59:47.715Z,8.78
2018-09-29T22:02:17.382Z,8.85
2018-09-29T22:04:46.600Z,8.76
2018-09-29T22:07:15.870Z,8.86
2018-09-29T22:09:45.175Z,8.85
2018-09-29T22:12:14.430Z,8.68
2018-09-29T22:14:43.815Z,8.58
2018-09-29T22:17:13.105Z,8.73
2018-09-29T22:19:42.418Z,8.55
2018-09-29T22:22:11.766Z,8.52
2018-09-29T22:24:41.085Z,8.34
2018-09-29T22:27:10.406Z,8.24
2018-09-29T22:29:39.709Z,8.32
2018-09-29T22:32:09.139Z,8.20
2018-09-29T22:34:38.510Z,8.08
2018-09-29T22:37:08.026Z,7.99
2018-09-29T22:39:40.198Z,7.95
2018-09-29T22:42:09.770Z,7.86
2018-09-29T22:44:39.213Z,7.81
2018-09-29T22:47:08.607Z,7.72
2018-09-29T22:49:37.906Z,7.73
2018-09-29T22:52:07.305Z,7.75
2018-09-29T22:54:36.624Z,7.67
2018-09-29T22:57:05.906Z,7.51
2018-09-29T22:59:35.086Z,7.51
2018-09-29T23:02:04.390Z,7.44
2018-09-29T23:04:33.698Z,7.36
2018-09-29T23:07:03.187Z,7.36
2018-09-29T23:09:32.526Z,7.33
2018-09-29T23:12:04.583Z,7.32
2018-09-29T23:14:33.945Z,7.26
2018-09-29T23:17:03.226Z,7.23
2018-09-29T23:19:32.588Z,7.18
2018-09-29T23:22:01.959Z,7.27
2018-09-29T23:24:31.270Z,7.27
2018-09-29T23:27:00.592Z,7.29
2018-09-29T23:29:29.925Z,7.25
2018-09-29T23:31:59.253Z,7.25
2018-09-29T23:34:28.565Z,7.23
2018-09-29T23:36:57.970Z,7.46
2018-09-29T23:39:27.243Z,7.56
2018-09-29T23:42:02.610Z,7.44
2018-09-29T23:44:31.917Z,7.35
2018-09-29T23:47:01.417Z,7.31
2018-09-29T23:49:30.840Z,7.26
2018-09-29T23:52:00.225Z,7.24
2018-09-29T23:54:29.553Z,7.18
2018-09-29T23:56:58.800Z,7.11
2018-09-29T23:59:28.099Z,7.08
